Time;durP1;ratioP1;P1;durP2;ratioP2;P2;SDS_P1;SDS_P2;PMS_P1;PMS_P2;Temp;Humidity;BMP_temperature;BMP_pressure;BME280_temperature;BME280_humidity;BME280_pressure;Samples;Min_cycle;Max_cycle;Signal;HPM_P1;HPM_P2
2022/06/07 00:01:35;;;;;;;15.18;6.07;;;;;;;23.31;92.32;100179.94;5027413;28;20061;-87
2022/06/07 00:04:05;;;;;;;15.85;5.60;;;;;;;23.20;92.76;100170.91;5021464;28;20033;-86
2022/06/07 00:06:32;;;;;;;15.32;4.90;;;;;;;22.93;94.93;100172.75;5023813;28;20512;-88
2022/06/07 00:09:00;;;;;;;21.52;6.35;;;;;;;22.87;95.28;100173.78;5027590;28;20034;-86
2022/06/07 00:11:26;;;;;;;15.00;5.60;;;;;;;22.70;95.15;100163.00;5028266;28;20034;-88
2022/06/07 00:13:53;;;;;;;14.38;4.70;;;;;;;22.70;94.05;100179.22;5025354;28;20042;-91
2022/06/07 00:16:39;;;;;;;13.48;4.82;;;;;;;22.79;92.84;100183.13;5025166;28;20006;-88
2022/06/07 00:19:28;;;;;;;22.73;5.32;;;;;;;22.78;94.05;100169.84;5003657;28;20101;-89
2022/06/07 00:22:02;;;;;;;12.60;5.05;;;;;;;22.79;93.46;100158.81;5008587;28;20109;-90
2022/06/07 00:24:35;;;;;;;18.50;4.75;;;;;;;22.88;92.88;100154.59;5009338;28;20045;-91
2022/06/07 00:27:04;;;;;;;16.38;5.03;;;;;;;22.88;93.61;100154.59;5014786;28;20050;-86
2022/06/07 00:29:30;;;;;;;19.95;5.35;;;;;;;22.97;92.18;100150.38;5017240;28;20029;-87
2022/06/07 00:31:56;;;;;;;13.93;5.15;;;;;;;22.93;92.18;100146.56;5018297;28;20018;-91
2022/06/07 00:34:23;;;;;;;16.55;4.50;;;;;;;23.04;92.03;100148.28;5016574;28;20106;-91
2022/06/07 00:36:49;;;;;;;14.80;4.70;;;;;;;22.85;90.46;100149.69;5015702;28;20089;-87
2022/06/07 00:39:17;;;;;;;13.98;4.70;;;;;;;22.90;89.49;100147.03;5021335;28;20025;-89
2022/06/07 00:41:43;;;;;;;13.85;4.80;;;;;;;22.83;89.38;100141.03;5019287;28;20049;-87
2022/06/07 00:44:21;;;;;;;14.05;4.05;;;;;;;22.99;88.80;100137.44;5020198;28;20048;-88
2022/06/07 00:47:12;;;;;;;16.25;4.57;;;;;;;22.99;88.34;100129.31;5020332;28;20518;-87
2022/06/07 00:49:50;;;;;;;12.68;4.00;;;;;;;22.95;89.93;100127.38;5017991;28;20103;-90
2022/06/07 00:55:02;;;;;;;11.98;4.57;;;;;;;22.85;89.29;100117.25;4922085;26;20046;-88
2022/06/07 00:57:41;;;;;;;14.40;4.18;;;;;;;22.71;90.81;100105.19;5022663;28;20483;-89
2022/06/07 01:00:23;;;;;;;13.23;4.27;;;;;;;22.59;90.90;100104.47;5021621;28;20049;-88
2022/06/07 01:02:51;;;;;;;13.00;4.72;;;;;;;22.42;91.99;100101.00;5024201;28;20112;-88
2022/06/07 01:05:17;;;;;;;11.57;3.90;;;;;;;22.29;93.25;100093.25;5008807;28;20030;-86
2022/06/07 01:10:49;;;;;;;14.77;4.63;;;;;;;22.14;93.87;100073.06;5021227;28;20038;-88
2022/06/07 01:13:26;;;;;;;14.88;4.63;;;;;;;22.11;94.23;100072.75;5008664;28;20038;-87
2022/06/07 01:16:11;;;;;;;19.27;4.97;;;;;;;22.03;95.19;100073.19;5022399;28;20129;-91
2022/06/07 01:18:44;;;;;;;13.10;4.63;;;;;;;22.02;96.30;100066.97;5019243;28;20344;-87
2022/06/07 01:21:20;;;;;;;15.43;5.18;;;;;;;21.94;96.84;100067.38;5018468;28;20385;-87
2022/06/07 01:23:51;;;;;;;13.57;4.80;;;;;;;21.86;97.86;100058.84;5022442;28;20247;-86
2022/06/07 01:26:22;;;;;;;12.13;4.70;;;;;;;21.76;97.69;100054.13;5027461;28;20052;-87
2022/06/07 01:29:10;;;;;;;13.75;4.43;;;;;;;21.76;96.93;100048.75;5025706;28;20332;-87
2022/06/07 01:31:43;;;;;;;19.75;5.05;;;;;;;21.75;97.10;100036.31;5023194;28;20168;-88
2022/06/07 01:34:11;;;;;;;12.07;4.50;;;;;;;21.82;96.61;100041.53;5026722;28;20041;-87
2022/06/07 01:36:40;;;;;;;13.05;4.85;;;;;;;21.77;96.87;100036.88;5025434;28;20613;-86
2022/06/07 01:41:56;;;;;;;17.30;5.25;;;;;;;21.67;98.32;100039.44;5024971;28;20041;-87
2022/06/07 01:44:34;;;;;;;15.25;4.82;;;;;;;21.66;98.33;100040.47;5012650;28;20119;-87
2022/06/07 01:47:01;;;;;;;13.80;5.03;;;;;;;21.72;97.54;100044.06;5010235;28;20048;-86
2022/06/07 01:49:34;;;;;;;14.32;5.00;;;;;;;21.75;97.32;100046.28;5029279;28;20082;-87
2022/06/07 01:52:01;;;;;;;17.83;5.32;;;;;;;21.74;98.26;100040.09;5022275;28;20046;-86
2022/06/07 01:54:31;;;;;;;10.38;4.50;;;;;;;21.85;97.20;100047.25;5024252;28;20125;-86
2022/06/07 01:56:56;;;;;;;11.30;4.47;;;;;;;21.80;97.37;100055.28;5022946;28;20081;-87
2022/06/07 01:59:25;;;;;;;17.45;5.32;;;;;;;21.84;96.88;100063.69;5007299;28;20136;-89
2022/06/07 02:02:11;;;;;;;16.17;5.47;;;;;;;21.77;96.97;100061.16;5030248;23;20046;-88
2022/06/07 02:04:42;;;;;;;12.32;4.65;;;;;;;21.85;96.65;100062.63;5004341;28;20364;-88
2022/06/07 02:07:11;;;;;;;12.63;4.80;;;;;;;21.85;97.62;100066.13;5025916;28;20125;-88
2022/06/07 02:09:37;;;;;;;12.80;4.57;;;;;;;21.80;97.73;100065.25;5025885;28;20061;-86
2022/06/07 02:12:03;;;;;;;14.15;4.70;;;;;;;21.67;99.17;100057.50;5020756;28;20037;-87
2022/06/07 02:14:30;;;;;;;23.25;5.15;;;;;;;21.56;100.00;100049.22;5019066;28;20061;-89
2022/06/07 02:16:56;;;;;;;14.05;5.32;;;;;;;21.57;100.00;100055.44;5020085;28;20091;-87
2022/06/07 02:19:32;;;;;;;11.82;4.63;;;;;;;21.68;100.00;100051.84;5024363;28;20041;-89
2022/06/07 02:22:12;;;;;;;21.15;5.03;;;;;;;21.63;100.00;100055.28;5023349;28;20076;-88
2022/06/07 02:24:43;;;;;;;16.95;4.80;;;;;;;21.65;100.00;100052.31;5025910;28;20650;-90
2022/06/07 02:27:17;;;;;;;13.52;4.90;;;;;;;21.65;100.00;100046.94;5025922;28;20110;-88
2022/06/07 02:29:52;;;;;;;14.57;5.55;;;;;;;21.73;100.00;100043.84;5027607;28;20041;-91
2022/06/07 02:32:39;;;;;;;14.93;6.47;;;;;;;21.75;100.00;100030.09;5023375;28;20365;-87
2022/06/07 02:35:06;;;;;;;20.35;8.05;;;;;;;21.77;100.00;100028.78;4967874;28;20126;-90
2022/06/07 02:37:35;;;;;;;21.40;8.73;;;;;;;21.82;100.00;100026.16;4984600;28;20601;-86
2022/06/07 02:40:02;;;;;;;25.65;8.35;;;;;;;21.88;100.00;100019.78;4980122;28;20053;-87
2022/06/07 02:42:29;;;;;;;17.60;8.80;;;;;;;21.90;100.00;100020.38;4968175;28;20038;-86
2022/06/07 02:44:57;;;;;;;23.67;8.85;;;;;;;21.89;100.00;100010.66;5017132;28;20034;-85
2022/06/07 02:47:43;;;;;;;25.00;9.65;;;;;;;21.92;100.00;100007.44;5012096;28;20041;-85
2022/06/07 02:50:24;;;;;;;31.33;10.95;;;;;;;21.80;100.00;100004.03;5023216;28;20042;-90
2022/06/07 02:52:55;;;;;;;30.52;10.90;;;;;;;21.75;100.00;100003.94;5025783;28;20128;-90
2022/06/07 02:55:27;;;;;;;30.00;10.10;;;;;;;21.64;100.00;100007.56;5027580;28;20096;-87
2022/06/07 02:57:59;;;;;;;27.88;11.77;;;;;;;21.65;100.00;100010.00;5022636;28;20491;-88
2022/06/07 03:00:29;;;;;;;24.83;11.60;;;;;;;21.57;100.00;100009.59;5023701;28;20038;-88
2022/06/07 03:02:56;;;;;;;34.60;11.70;;;;;;;21.49;100.00;100015.41;5026129;28;20038;-92
2022/06/07 03:05:27;;;;;;;31.23;13.02;;;;;;;21.36;100.00;100013.03;5018838;28;20033;-88
2022/06/07 03:08:12;;;;;;;30.92;12.85;;;;;;;21.30;100.00;100027.50;5035970;28;20100;-87
2022/06/07 03:10:43;;;;;;;30.23;13.95;;;;;;;21.25;100.00;100030.06;5038308;28;20046;-84
2022/06/07 03:13:16;;;;;;;30.10;13.77;;;;;;;21.31;100.00;100029.13;5034856;28;20030;-85
2022/06/07 03:15:43;;;;;;;33.03;14.38;;;;;;;21.34;100.00;100031.34;5013433;28;20052;-86
2022/06/07 03:18:23;;;;;;;32.05;15.98;;;;;;;21.32;100.00;100036.13;5026337;28;20018;-88
2022/06/07 03:20:52;;;;;;;33.70;15.75;;;;;;;21.30;100.00;100046.34;5026799;28;20105;-89
2022/06/07 03:23:24;;;;;;;32.72;16.02;;;;;;;21.29;100.00;100052.78;5025529;28;20037;-88
2022/06/07 03:26:03;;;;;;;34.05;15.55;;;;;;;21.24;100.00;100050.03;5020041;28;20057;-87
2022/06/07 03:28:32;;;;;;;30.50;16.60;;;;;;;21.22;100.00;100050.25;5037907;28;20022;-89
2022/06/07 03:31:07;;;;;;;35.78;16.55;;;;;;;21.22;100.00;100046.75;5038217;28;20688;-89
2022/06/07 03:33:36;;;;;;;34.28;16.40;;;;;;;21.21;100.00;100050.53;5029320;28;20085;-86
2022/06/07 03:36:07;;;;;;;42.72;17.90;;;;;;;21.21;100.00;100045.13;5024199;28;20044;-86
2022/06/07 03:38:36;;;;;;;31.85;17.63;;;;;;;21.25;100.00;100047.06;5024198;28;20057;-88
2022/06/07 03:41:03;;;;;;;35.30;16.85;;;;;;;21.27;100.00;100038.75;5023117;28;20172;-88
2022/06/07 03:43:40;;;;;;;34.58;17.83;;;;;;;21.20;100.00;100040.78;5022027;28;20030;-87
2022/06/07 03:46:13;;;;;;;39.45;17.65;;;;;;;21.24;100.00;100039.25;5018095;28;20053;-88
2022/06/07 03:48:53;;;;;;;45.10;19.98;;;;;;;21.20;100.00;100054.25;5007441;28;20038;-85
2022/06/07 03:51:29;;;;;;;37.90;19.63;;;;;;;21.10;100.00;100055.72;5022601;28;20135;-87
2022/06/07 03:53:56;;;;;;;41.63;19.45;;;;;;;21.10;100.00;100071.91;5019498;28;20038;-88
2022/06/07 03:56:23;;;;;;;42.75;20.58;;;;;;;21.09;100.00;100075.63;5021179;28;20025;-86
2022/06/07 03:58:51;;;;;;;33.55;19.58;;;;;;;21.09;100.00;100081.03;5020667;28;20041;-84
2022/06/07 04:01:24;;;;;;;33.40;19.83;;;;;;;21.11;100.00;100084.28;5024010;28;20129;-86
2022/06/07 04:03:53;;;;;;;42.55;21.05;;;;;;;21.13;100.00;100092.16;5021117;28;20097;-84
2022/06/07 04:06:27;;;;;;;42.38;21.73;;;;;;;21.14;100.00;100097.28;5022352;28;20041;-86
2022/06/07 04:09:03;;;;;;;45.72;21.05;;;;;;;21.19;100.00;100095.75;5022532;28;20061;-86
2022/06/07 04:11:40;;;;;;;33.65;19.35;;;;;;;21.28;100.00;100105.09;5010041;28;20473;-84
2022/06/07 04:14:09;;;;;;;34.90;19.48;;;;;;;21.36;100.00;100104.69;5027095;28;20139;-85
2022/06/07 04:16:53;;;;;;;38.03;19.67;;;;;;;21.38;100.00;100113.34;5009462;28;20042;-82
2022/06/07 04:19:29;;;;;;;36.83;19.17;;;;;;;21.40;100.00;100120.16;5004578;28;20046;-86
2022/06/07 04:21:58;;;;;;;40.17;20.17;;;;;;;21.49;100.00;100112.47;5021062;28;20046;-85
2022/06/07 04:24:33;;;;;;;34.53;19.50;;;;;;;21.49;100.00;100120.56;5025883;28;20036;-83
2022/06/07 04:27:00;;;;;;;36.40;20.27;;;;;;;21.49;100.00;100120.56;5028923;28;20475;-85
2022/06/07 04:29:28;;;;;;;35.50;19.40;;;;;;;21.47;100.00;100125.38;5027708;28;20022;-86
2022/06/07 04:31:59;;;;;;;24.30;14.52;;;;;;;21.51;100.00;100137.34;5010406;28;20034;-86
2022/06/07 04:34:28;;;;;;;32.65;13.40;;;;;;;21.49;100.00;100147.53;5024851;28;20018;-86
2022/06/07 04:36:56;;;;;;;23.73;12.85;;;;;;;21.53;100.00;100146.81;5025435;28;20042;-85
2022/06/07 04:39:35;;;;;;;26.30;11.88;;;;;;;21.58;100.00;100164.94;5026653;28;20109;-87
2022/06/07 04:42:09;;;;;;;26.42;11.27;;;;;;;21.59;100.00;100166.59;5027125;28;20390;-85
2022/06/07 04:44:54;;;;;;;19.77;10.75;;;;;;;21.60;100.00;100173.63;5022538;28;20048;-86
2022/06/07 04:47:28;;;;;;;19.20;8.20;;;;;;;21.52;100.00;100177.53;5025859;28;20037;-86
2022/06/07 04:49:54;;;;;;;18.50;7.57;;;;;;;21.44;100.00;100177.09;5021873;28;20050;-87
2022/06/07 04:52:23;;;;;;;15.20;7.85;;;;;;;21.47;100.00;100173.94;5025691;28;20037;-86
2022/06/07 04:54:56;;;;;;;12.55;6.13;;;;;;;21.44;100.00;100174.41;5026036;28;20036;-86
2022/06/07 04:57:23;;;;;;;14.13;6.05;;;;;;;21.55;100.00;100184.31;5029131;28;20172;-84
2022/06/07 04:59:49;;;;;;;19.55;6.63;;;;;;;21.56;100.00;100178.69;5011252;28;20056;-85
2022/06/07 05:02:21;;;;;;;17.67;5.95;;;;;;;21.45;100.00;100170.63;5028637;28;20034;-84
2022/06/07 05:04:53;;;;;;;15.85;5.70;;;;;;;21.44;100.00;100186.00;5029347;28;20021;-85
2022/06/07 05:08:10;;;;;;;11.75;4.80;;;;;;;21.48;100.00;100189.84;5014000;28;20050;-84
2022/06/07 05:10:40;;;;;;;12.10;4.10;;;;;;;21.42;100.00;100198.06;4969909;28;20051;-85
2022/06/07 05:13:08;;;;;;;12.20;4.22;;;;;;;21.38;100.00;100195.03;4954241;28;20035;-87
2022/06/07 05:15:52;;;;;;;9.52;4.43;;;;;;;21.44;100.00;100190.59;4984660;28;20125;-85
2022/06/07 05:18:18;;;;;;;14.13;3.47;;;;;;;21.44;100.00;100190.59;4964314;28;20043;-88
2022/06/07 05:20:47;;;;;;;10.60;3.70;;;;;;;21.48;100.00;100197.09;5016535;28;20054;-88
2022/06/07 05:23:17;;;;;;;11.43;3.83;;;;;;;21.44;100.00;100193.28;5005581;28;20061;-91
2022/06/07 05:25:59;;;;;;;10.63;3.33;;;;;;;21.52;100.00;100190.19;5022884;28;20049;-85
2022/06/07 05:28:44;;;;;;;15.52;3.45;;;;;;;21.40;100.00;100197.50;5007494;28;20034;-90
2022/06/07 05:31:12;;;;;;;11.20;3.40;;;;;;;21.53;100.00;100205.31;5018854;28;20030;-91
2022/06/07 05:33:51;;;;;;;9.40;3.20;;;;;;;21.50;100.00;100201.22;5016728;28;20026;-88
2022/06/07 05:36:23;;;;;;;10.68;4.15;;;;;;;21.45;100.00;100203.00;5027594;28;20046;-88
2022/06/07 05:38:55;;;;;;;12.65;3.60;;;;;;;21.39;100.00;100209.34;5012707;28;20034;-89
2022/06/07 05:41:29;;;;;;;8.95;3.78;;;;;;;21.34;100.00;100211.97;5031211;23;20069;-88
2022/06/07 05:44:06;;;;;;;11.07;3.67;;;;;;;21.38;100.00;100221.19;4999131;28;20034;-90
2022/06/07 05:46:36;;;;;;;7.05;2.85;;;;;;;21.30;100.00;100227.78;4982254;28;20034;-88
2022/06/07 05:49:12;;;;;;;21.23;4.07;;;;;;;21.26;100.00;100232.00;4996666;28;20030;-87
2022/06/07 05:52:03;;;;;;;16.80;3.30;;;;;;;21.20;100.00;100222.19;4993021;28;20049;-90
2022/06/07 05:54:35;;;;;;;10.95;3.28;;;;;;;21.19;100.00;100217.84;4984035;28;20043;-86
2022/06/07 05:57:11;;;;;;;9.27;2.53;;;;;;;21.24;100.00;100225.22;4998389;28;20092;-86
2022/06/07 05:59:39;;;;;;;8.18;2.70;;;;;;;21.35;100.00;100221.66;4998179;28;20030;-87
2022/06/07 06:02:06;;;;;;;12.75;2.10;;;;;;;21.29;100.00;100219.94;4991361;28;20030;-89
2022/06/07 06:04:37;;;;;;;5.68;2.20;;;;;;;21.34;100.00;100217.34;5002882;28;20057;-90
2022/06/07 06:07:37;;;;;;;4.85;2.17;;;;;;;21.36;100.00;100216.03;5001656;28;20038;-92
2022/06/07 06:10:27;;;;;;;8.00;2.08;;;;;;;21.38;100.00;100213.91;5003934;28;20058;-90
2022/06/07 06:12:59;;;;;;;6.97;2.22;;;;;;;21.44;100.00;100223.72;4989095;28;20117;-86
2022/06/07 06:15:35;;;;;;;4.80;1.90;;;;;;;21.35;100.00;100216.28;4987097;28;20201;-86
2022/06/07 06:18:04;;;;;;;10.20;2.30;;;;;;;21.33;100.00;100221.91;5047733;22;20188;-85
2022/06/07 06:20:36;;;;;;;9.88;2.22;;;;;;;21.21;100.00;100225.72;5021764;28;20160;-85
2022/06/07 06:23:09;;;;;;;6.07;1.95;;;;;;;21.42;100.00;100228.56;5036490;28;20050;-84
2022/06/07 06:25:34;;;;;;;6.35;1.63;;;;;;;21.35;100.00;100229.75;5019834;28;20037;-86
2022/06/07 06:28:01;;;;;;;6.57;1.73;;;;;;;21.41;100.00;100234.22;5039850;28;20040;-86
2022/06/07 06:30:28;;;;;;;5.07;2.25;;;;;;;21.43;100.00;100226.69;5031153;28;20129;-86
2022/06/07 06:33:14;;;;;;;5.70;2.17;;;;;;;21.48;100.00;100234.88;5016402;28;20038;-87
2022/06/07 06:35:47;;;;;;;10.45;2.15;;;;;;;21.48;100.00;100229.47;5018026;28;20046;-87
2022/06/07 06:38:16;;;;;;;4.80;1.52;;;;;;;21.48;100.00;100221.38;5018216;28;20042;-85
2022/06/07 06:40:43;;;;;;;11.93;4.60;;;;;;;21.17;100.00;100219.16;5017908;28;20061;-87
2022/06/07 06:43:10;;;;;;;7.63;2.20;;;;;;;21.04;100.00;100226.41;5017415;28;20038;-86
2022/06/07 06:45:51;;;;;;;4.60;2.15;;;;;;;20.74;100.00;100223.06;5002298;28;20048;-86
2022/06/07 06:48:22;;;;;;;3.88;1.52;;;;;;;20.56;100.00;100215.09;5017975;28;20030;-86
2022/06/07 06:50:59;;;;;;;8.70;1.70;;;;;;;20.73;100.00;100221.41;5019505;28;20045;-87
2022/06/07 06:53:24;;;;;;;5.55;1.77;;;;;;;20.87;100.00;100228.22;5018738;28;20040;-88
2022/06/07 06:55:55;;;;;;;3.53;1.58;;;;;;;20.77;100.00;100224.47;5017599;28;20033;-85
2022/06/07 06:58:27;;;;;;;7.47;2.22;;;;;;;20.58;100.00;100213.00;5017434;28;20049;-87
2022/06/07 07:01:01;;;;;;;5.32;1.92;;;;;;;21.09;100.00;100210.38;5017561;28;20038;-86
2022/06/07 07:03:33;;;;;;;7.80;2.13;;;;;;;21.20;100.00;100202.50;5017425;28;20030;-86
2022/06/07 07:06:01;;;;;;;3.70;1.70;;;;;;;21.28;100.00;100216.41;5016793;28;20030;-87
2022/06/07 07:08:32;;;;;;;7.32;1.73;;;;;;;21.43;100.00;100213.22;5017465;28;20087;-85
2022/06/07 07:11:07;;;;;;;9.27;1.80;;;;;;;21.63;100.00;100219.00;5017224;28;20041;-86
2022/06/07 07:13:35;;;;;;;4.25;1.75;;;;;;;21.76;100.00;100220.56;4999961;28;20077;-87
2022/06/07 07:16:02;;;;;;;7.47;1.63;;;;;;;21.57;100.00;100222.66;5016457;28;20196;-87
2022/06/07 07:18:28;;;;;;;5.10;1.50;;;;;;;21.79;100.00;100226.28;5015213;28;20432;-86
2022/06/07 07:20:56;;;;;;;4.90;1.45;;;;;;;21.96;100.00;100212.84;5017103;28;20072;-86
2022/06/07 07:23:24;;;;;;;4.63;1.85;;;;;;;22.13;100.00;100221.78;5017182;28;20041;-87
2022/06/07 07:25:51;;;;;;;4.53;1.60;;;;;;;21.98;100.00;100219.66;5016713;28;21101;-86
2022/06/07 07:28:17;;;;;;;6.03;1.92;;;;;;;22.00;100.00;100222.13;5001420;28;20073;-87
2022/06/07 07:30:43;;;;;;;4.85;1.83;;;;;;;22.21;100.00;100228.66;5016969;28;20045;-86
2022/06/07 07:33:09;;;;;;;4.97;1.58;;;;;;;22.24;100.00;100220.88;5017093;28;20080;-86
2022/06/07 07:35:34;;;;;;;6.22;2.20;;;;;;;21.74;100.00;100214.59;5016403;28;20045;-87
2022/06/07 07:38:03;;;;;;;11.32;1.70;;;;;;;21.89;100.00;100213.03;5017968;28;20030;-84
2022/06/07 07:40:30;;;;;;;5.88;1.77;;;;;;;21.79;100.00;100210.09;5018696;28;20391;-85
2022/06/07 07:42:57;;;;;;;7.75;1.50;;;;;;;21.63;100.00;100205.50;5021814;28;20117;-85
2022/06/07 07:45:29;;;;;;;7.97;1.77;;;;;;;21.75;100.00;100206.25;5019018;28;20121;-86
2022/06/07 07:47:57;;;;;;;6.63;1.70;;;;;;;21.98;100.00;100208.84;5017915;28;20403;-89
2022/06/07 07:50:26;;;;;;;6.13;1.58;;;;;;;22.06;100.00;100205.75;5028386;28;20010;-87
2022/06/07 07:52:59;;;;;;;7.13;1.50;;;;;;;22.45;100.00;100195.03;5018603;28;20044;-87
2022/06/07 07:55:27;;;;;;;3.90;1.55;;;;;;;22.48;100.00;100202.63;5001077;28;20040;-86
2022/06/07 07:57:54;;;;;;;7.10;1.58;;;;;;;22.73;100.00;100188.69;4984586;28;20042;-87
2022/06/07 08:00:20;;;;;;;5.63;1.58;;;;;;;22.70;100.00;100184.63;5020039;28;20034;-88
2022/06/07 08:02:56;;;;;;;3.25;1.20;;;;;;;22.68;100.00;100181.34;5019200;28;20493;-86
2022/06/07 08:05:32;;;;;;;5.65;1.55;;;;;;;23.21;99.40;100175.25;5017526;28;20049;-88
2022/06/07 08:07:59;;;;;;;5.70;1.67;;;;;;;23.00;99.65;100168.78;5017901;28;20519;-85
2022/06/07 08:10:25;;;;;;;5.60;2.05;;;;;;;23.06;100.00;100162.38;5019405;28;20174;-86
2022/06/07 08:12:51;;;;;;;4.10;1.80;;;;;;;23.29;99.33;100160.47;5020531;28;20083;-86
2022/06/07 08:15:21;;;;;;;8.70;1.88;;;;;;;23.25;98.61;100154.75;5019511;28;20034;-87
2022/06/07 08:17:47;;;;;;;4.43;1.70;;;;;;;23.56;98.00;100154.03;5003813;28;20037;-86
2022/06/07 08:20:13;;;;;;;7.55;2.63;;;;;;;23.93;96.32;100156.78;4998513;28;20034;-86
2022/06/07 08:22:39;;;;;;;8.20;1.60;;;;;;;24.07;95.68;100152.56;4999315;28;20155;-86
2022/06/07 08:25:06;;;;;;;11.98;1.85;;;;;;;24.40;91.67;100156.06;5000996;28;20034;-88
2022/06/07 08:27:31;;;;;;;5.47;1.90;;;;;;;24.55;91.32;100150.75;4969298;28;20114;-87
2022/06/07 08:29:57;;;;;;;10.27;1.80;;;;;;;25.23;86.79;100148.88;5003762;28;20066;-87
2022/06/07 08:32:22;;;;;;;8.27;1.70;;;;;;;24.96;86.81;100143.66;4999756;28;20038;-87
2022/06/07 08:37:34;;;;;;;4.95;1.25;;;;;;;25.30;85.78;100138.59;5011853;28;20487;-84
2022/06/07 08:40:14;;;;;;;5.75;1.90;;;;;;;25.38;85.05;100133.47;5017880;28;20033;-85
2022/06/07 08:42:55;;;;;;;8.60;1.52;;;;;;;25.76;82.68;100143.03;5021006;28;20582;-85
2022/06/07 08:45:29;;;;;;;5.75;2.05;;;;;;;26.32;79.78;100145.75;5024751;28;20088;-86
2022/06/07 08:48:08;;;;;;;5.90;1.73;;;;;;;26.68;79.16;100142.66;5016913;28;20126;-87
2022/06/07 08:50:42;;;;;;;5.97;2.25;;;;;;;26.92;79.42;100129.28;4996284;28;20034;-87
2022/06/07 08:53:39;;;;;;;7.30;2.17;;;;;;;26.68;80.63;100133.72;5016415;28;20117;-88
2022/06/07 08:56:13;;;;;;;8.07;2.17;;;;;;;26.39;81.20;100133.50;5015926;28;20057;-88
2022/06/07 08:58:41;;;;;;;10.95;2.60;;;;;;;26.44;79.13;100135.41;5017740;28;20045;-91
2022/06/07 09:01:52;;;;;;;6.13;2.25;;;;;;;27.03;76.78;100132.78;5015269;28;20026;-88
2022/06/07 09:04:22;;;;;;;6.28;2.50;;;;;;;27.49;75.48;100127.91;4996176;28;20407;-88
2022/06/07 09:06:56;;;;;;;8.52;2.90;;;;;;;27.03;77.61;100116.44;4997594;28;20050;-88
2022/06/07 09:12:20;;;;;;;8.68;3.67;;;;;;;26.93;77.21;100111.88;5003517;28;20038;-89
2022/06/07 09:15:12;;;;;;;7.82;3.65;;;;;;;26.40;79.35;100110.69;5021102;28;20044;-88
2022/06/07 09:17:55;;;;;;;10.48;3.70;;;;;;;26.43;79.73;100109.31;5025937;28;20030;-88
2022/06/07 09:20:48;;;;;;;14.80;4.38;;;;;;;26.38;80.70;100106.63;5018404;28;20023;-87
2022/06/07 09:23:31;;;;;;;;;;;;;;;27.01;78.96;100103.09;5017537;28;20026;-88
2022/06/07 09:26:18;;;;;;;10.88;3.60;;;;;;;27.31;77.25;100098.59;5013249;28;20413;-89
2022/06/07 09:28:48;;;;;;;10.07;4.20;;;;;;;27.37;78.06;100097.47;5006780;28;20500;-90
2022/06/07 09:31:21;;;;;;;11.85;4.32;;;;;;;27.08;78.75;100100.91;5018490;28;20034;-90
2022/06/07 09:33:53;;;;;;;7.60;3.35;;;;;;;27.59;78.03;100103.31;5000487;28;20034;-90
2022/06/07 09:36:31;;;;;;;15.25;3.65;;;;;;;27.57;78.43;100098.19;5006028;28;20128;-90
2022/06/07 09:39:06;;;;;;;10.05;5.18;;;;;;;27.99;74.12;100094.81;5013028;28;20061;-88
2022/06/07 09:42:03;;;;;;;11.25;4.75;;;;;;;27.50;76.29;100102.31;4999404;28;20534;-93
2022/06/07 09:44:35;;;;;;;11.68;4.57;;;;;;;27.22;78.71;100101.91;4965846;28;20046;-92
2022/06/07 09:47:17;;;;;;;14.85;6.15;;;;;;;27.35;77.57;100094.19;4972916;28;20067;-89
2022/06/07 09:49:51;;;;;;;9.13;5.53;;;;;;;27.06;77.83;100097.66;4980477;28;20113;-91
2022/06/07 09:52:32;;;;;;;9.27;6.10;;;;;;;26.93;78.60;100092.84;4970716;28;20108;-92
2022/06/07 09:55:20;;;;;;;9.10;5.97;;;;;;;26.54;80.00;100089.16;4986432;28;20137;-92
2022/06/07 09:58:01;;;;;;;10.20;5.57;;;;;;;27.16;78.50;100084.00;5019554;28;20099;-93
2022/06/07 10:00:50;;;;;;;15.67;6.73;;;;;;;27.06;78.32;100083.25;5009651;28;20045;-92
2022/06/07 10:03:59;;;;;;;15.52;4.40;;;;;;;27.38;77.31;100088.19;5025311;28;20296;-95
2022/06/07 10:06:28;;;;;;;11.02;5.57;;;;;;;27.87;75.82;100077.22;5006570;28;20038;-93
2022/06/07 10:09:15;;;;;;;9.95;5.82;;;;;;;27.72;75.58;100072.72;5013469;28;20038;-91
2022/06/07 10:12:05;;;;;;;13.63;5.32;;;;;;;27.46;76.88;100060.41;5015720;28;20030;-92
2022/06/07 10:14:44;;;;;;;14.57;5.22;;;;;;;26.83;80.13;100060.25;5009617;28;20073;-89
2022/06/07 10:17:35;;;;;;;11.25;4.95;;;;;;;26.84;79.77;100052.91;5015928;28;20043;-89
2022/06/07 10:20:39;;;;;;;8.80;5.18;;;;;;;27.23;77.60;100049.13;5012010;28;20026;-89
2022/06/07 10:23:23;;;;;;;11.00;4.90;;;;;;;27.63;76.50;100058.09;5015794;28;20510;-89
2022/06/07 10:26:31;;;;;;;16.23;4.47;;;;;;;27.04;78.45;100056.34;5023649;28;20490;-89
2022/06/07 10:28:57;;;;;;;12.20;5.13;;;;;;;26.56;80.84;100057.06;5020719;28;20040;-89
2022/06/07 10:31:46;;;;;;;8.75;4.43;;;;;;;26.44;82.75;100060.13;5027203;28;20454;-90
2022/06/07 10:34:24;;;;;;;16.85;5.80;;;;;;;26.16;83.61;100050.69;5029082;28;20069;-91
2022/06/07 10:37:11;;;;;;;14.07;5.35;;;;;;;26.10;84.44;100056.38;5024238;28;20173;-86
2022/06/07 10:39:48;;;;;;;16.23;5.70;;;;;;;26.01;83.95;100041.75;5032933;23;20429;-88
2022/06/07 10:42:40;;;;;;;15.38;6.47;;;;;;;25.99;82.91;100042.00;4991279;28;20062;-88
2022/06/07 10:45:44;;;;;;;11.27;4.97;;;;;;;26.45;81.52;100050.06;5007605;28;20038;-89
2022/06/07 10:48:19;;;;;;;13.05;5.63;;;;;;;26.84;81.03;100040.13;5014539;28;20030;-88
2022/06/07 10:50:59;;;;;;;11.05;5.10;;;;;;;27.46;78.03;100039.44;5015112;28;20042;-89
2022/06/07 10:53:39;;;;;;;12.13;5.07;;;;;;;27.54;77.32;100032.59;5019319;28;20515;-91
2022/06/07 10:56:39;;;;;;;16.88;9.38;;;;;;;27.07;77.48;100023.13;5018313;28;20046;-88
2022/06/07 10:59:17;;;;;;;17.92;7.70;;;;;;;27.47;77.39;100007.59;5025485;28;20046;-88
2022/06/07 11:02:08;;;;;;;10.98;4.70;;;;;;;27.69;76.62;99997.84;5022783;28;20038;-90
2022/06/07 11:11:15;;;;;;;14.40;5.85;;;;;;;27.15;76.93;100029.84;4951810;29;20047;-84
2022/06/07 11:14:18;;;;;;;11.95;5.65;;;;;;;26.68;79.68;100003.22;4961185;29;20039;-85
2022/06/07 11:16:58;;;;;;;12.95;5.97;;;;;;;26.36;81.54;100000.09;4962351;29;20048;-82
2022/06/07 11:19:24;;;;;;;16.58;6.95;;;;;;;25.95;83.34;100000.19;4942972;29;20043;-80
2022/06/07 11:22:00;;;;;;;16.55;6.50;;;;;;;25.51;86.40;100004.63;4969433;28;20048;-84
2022/06/07 11:25:05;;;;;;;11.02;5.90;;;;;;;25.32;87.06;99995.38;4990085;28;20039;-84
2022/06/07 11:27:34;;;;;;;9.60;5.20;;;;;;;25.52;87.04;99996.19;4990387;28;20042;-86
2022/06/07 11:30:21;;;;;;;14.45;5.85;;;;;;;25.50;87.29;99986.72;4989308;28;20046;-89
2022/06/07 11:33:00;;;;;;;15.75;5.85;;;;;;;25.52;87.43;99988.06;5008169;28;20176;-85
2022/06/07 11:35:51;;;;;;;11.85;5.95;;;;;;;25.39;87.26;99990.50;5000403;28;20038;-88
2022/06/07 11:38:40;;;;;;;;;;;;;;;25.38;87.63;99989.69;4994848;28;20065;-90
2022/06/07 11:41:37;;;;;;;9.02;5.53;;;;;;;25.04;89.84;99997.53;4988827;28;19921;-87
2022/06/07 11:44:18;;;;;;;11.27;5.97;;;;;;;24.92;90.58;99996.16;4998845;28;20047;-88
2022/06/07 11:47:20;;;;;;;18.48;7.05;;;;;;;25.17;89.72;100021.41;5000667;28;20031;-92
2022/06/07 11:50:04;;;;;;;20.48;13.13;;;;;;;25.22;88.89;100046.91;5005072;28;20035;-85
2022/06/07 11:53:02;;;;;;;12.38;5.63;;;;;;;25.28;87.93;100043.13;4995494;28;20061;-84
2022/06/07 11:55:43;;;;;;;13.27;7.45;;;;;;;25.40;87.54;100030.09;5043713;23;20077;-90
2022/06/07 11:58:50;;;;;;;9.30;5.38;;;;;;;25.27;89.43;100003.50;5003681;28;20092;-89
2022/06/07 12:02:07;;;;;;;12.02;4.63;;;;;;;25.24;91.17;99977.75;5028872;28;20058;-89
2022/06/07 12:04:59;;;;;;;7.25;4.07;;;;;;;25.11;92.64;100006.22;5025594;28;20054;-89
2022/06/07 12:08:03;;;;;;;11.38;3.72;;;;;;;25.12;94.83;100018.66;5035428;23;20046;-82
2022/06/07 12:10:36;;;;;;;12.48;4.22;;;;;;;25.12;95.42;100017.88;5019938;28;20040;-83
2022/06/07 12:13:15;;;;;;;8.55;4.25;;;;;;;24.93;98.34;100030.31;5028706;28;20041;-82